Terminal Aerodrome Forecast
Issued by NWS

Home | Current Version | Previous Version | Text Only | Print | Product List | Glossary On
Versions: 1 2 3 4 5 6 7 8 9 10 11 12 13 14 15 16 17 18 19 20 21 22 23 24 25 26 27 28 29 30 31 32 33 34 35 36 37 38
000
FTUS43 KPAH 171136
TAFOWB
TAF
KOWB 171136Z 1712/1812 VRB03KT 6SM BR SCT009 OVC025
      TEMPO 1712/1715 4SM BR BKN009
     FM171700 10004KT P6SM SCT035 BKN250
     FM180000 VRB03KT P6SM BKN040=

USA.gov is the U.S. government's official web portal to all federal, state and local government web resources and services.